Time;durP1;ratioP1;P1;durP2;ratioP2;P2;SDS_P1;SDS_P2;PMS_P1;PMS_P2;Temp;Humidity;BMP_temperature;BMP_pressure;BME280_temperature;BME280_humidity;BME280_pressure;Samples;Min_cycle;Max_cycle;Signal;HPM_P1;HPM_P2
2021/05/19 00:00:49;;;;;;;4.10;2.97;;;8.10;99.90;;;;;;5044262;28;20209;-91
2021/05/19 00:03:16;;;;;;;6.77;3.87;;;8.10;99.90;;;;;;5068956;28;20442;-91
2021/05/19 00:05:42;;;;;;;5.83;3.53;;;8.10;99.90;;;;;;5059984;28;20208;-93
2021/05/19 00:08:09;;;;;;;3.23;2.70;;;8.10;99.90;;;;;;5075337;28;20185;-92
2021/05/19 00:10:36;;;;;;;2.77;2.13;;;8.10;99.90;;;;;;5056621;28;20221;-94
2021/05/19 00:13:02;;;;;;;4.10;3.83;;;8.00;99.90;;;;;;5075304;28;20381;-92
2021/05/19 00:15:29;;;;;;;4.67;3.70;;;8.00;99.90;;;;;;5058075;28;20220;-92
2021/05/19 00:17:55;;;;;;;4.90;3.90;;;8.00;99.90;;;;;;5058637;28;20224;-92
2021/05/19 00:20:21;;;;;;;3.80;2.40;;;7.90;99.90;;;;;;5058310;28;20578;-92
2021/05/19 00:22:48;;;;;;;4.07;2.63;;;8.00;99.90;;;;;;5056994;28;20298;-93
2021/05/19 00:25:15;;;;;;;3.47;3.00;;;7.90;99.90;;;;;;5057688;28;20225;-93
2021/05/19 00:27:41;;;;;;;3.23;2.73;;;7.90;99.90;;;;;;5057352;28;20212;-92
2021/05/19 00:30:07;;;;;;;3.00;2.67;;;7.90;99.90;;;;;;5073800;28;20763;-93
2021/05/19 00:32:33;;;;;;;5.53;2.67;;;7.90;99.90;;;;;;5073959;28;20242;-92
2021/05/19 00:34:59;;;;;;;2.97;2.70;;;7.80;99.90;;;;;;5043964;28;20189;-93
2021/05/19 00:37:25;;;;;;;5.33;3.23;;;7.80;99.90;;;;;;5023514;28;20216;-93
2021/05/19 00:39:50;;;;;;;2.83;2.60;;;7.80;99.90;;;;;;5040679;28;20324;-92
2021/05/19 00:42:16;;;;;;;3.57;2.93;;;7.80;99.90;;;;;;5057946;28;20213;-91
2021/05/19 00:44:43;;;;;;;4.27;3.47;;;7.80;99.90;;;;;;5041453;28;21122;-92
2021/05/19 00:47:09;;;;;;;3.80;2.57;;;7.80;99.90;;;;;;5058802;28;20199;-93
2021/05/19 00:49:34;;;;;;;4.50;3.30;;;7.80;99.90;;;;;;5058612;28;20221;-92
2021/05/19 00:52:00;;;;;;;3.10;2.90;;;7.80;99.90;;;;;;5055715;28;20342;-92
2021/05/19 00:54:26;;;;;;;11.03;3.70;;;7.80;99.90;;;;;;5024807;28;20221;-93
2021/05/19 00:56:52;;;;;;;4.87;3.43;;;7.90;99.90;;;;;;5055272;28;20248;-92
2021/05/19 00:59:19;;;;;;;4.70;4.07;;;7.90;99.90;;;;;;5058257;28;20207;-92
2021/05/19 01:01:45;;;;;;;5.17;3.10;;;7.90;99.90;;;;;;5055081;28;20225;-92
2021/05/19 01:04:12;;;;;;;4.03;3.00;;;7.90;99.90;;;;;;5054250;28;20658;-93
2021/05/19 01:11:56;;;;;;;12.63;3.47;;;8.00;99.90;;;;;;5075690;28;20220;-92
2021/05/19 01:14:21;;;;;;;3.87;2.60;;;8.00;99.90;;;;;;5042919;28;20185;-93
2021/05/19 01:16:47;;;;;;;3.17;2.07;;;7.90;99.90;;;;;;5064755;28;20282;-93
2021/05/19 01:19:14;;;;;;;4.63;3.23;;;7.80;99.90;;;;;;5022202;28;20690;-93
2021/05/19 01:21:42;;;;;;;3.30;3.00;;;7.80;99.90;;;;;;5056165;28;20264;-93
2021/05/19 01:24:08;;;;;;;4.30;2.97;;;7.70;99.90;;;;;;5074164;28;20297;-92
2021/05/19 01:26:34;;;;;;;3.37;2.17;;;7.50;99.90;;;;;;5024398;28;20185;-92
2021/05/19 01:29:01;;;;;;;3.20;3.00;;;7.40;99.90;;;;;;5075031;28;20244;-92
2021/05/19 01:31:28;;;;;;;2.70;2.50;;;7.30;99.90;;;;;;5055740;28;20265;-92
2021/05/19 01:33:55;;;;;;;5.93;2.93;;;7.40;99.90;;;;;;5022988;28;20229;-93
2021/05/19 01:36:20;;;;;;;2.97;2.70;;;7.50;99.90;;;;;;5073374;28;20217;-93
2021/05/19 01:38:47;;;;;;;4.40;2.90;;;7.60;99.90;;;;;;5056986;28;20250;-92
2021/05/19 01:41:13;;;;;;;3.30;3.00;;;7.80;99.90;;;;;;5074817;28;20226;-93
2021/05/19 01:43:39;;;;;;;5.60;3.37;;;7.90;99.90;;;;;;5037803;28;20307;-93
2021/05/19 01:46:06;;;;;;;6.40;3.30;;;8.00;99.90;;;;;;5072895;28;20311;-93
2021/05/19 01:48:34;;;;;;;3.27;3.03;;;8.10;99.90;;;;;;5054846;28;20216;-93
2021/05/19 01:51:01;;;;;;;2.77;2.43;;;8.10;99.90;;;;;;5071146;28;20212;-92
2021/05/19 01:53:28;;;;;;;4.77;3.90;;;8.10;99.90;;;;;;5076243;28;20187;-93
2021/05/19 01:55:55;;;;;;;4.37;3.00;;;8.20;99.90;;;;;;5022201;28;20212;-93
2021/05/19 01:58:21;;;;;;;8.83;3.83;;;8.20;99.90;;;;;;5053793;28;20214;-93
2021/05/19 02:00:47;;;;;;;3.90;2.80;;;8.20;99.90;;;;;;5037650;28;20303;-93
2021/05/19 02:03:13;;;;;;;3.33;2.77;;;8.10;99.90;;;;;;5053752;28;21242;-93
2021/05/19 02:05:39;;;;;;;5.20;3.47;;;8.20;99.90;;;;;;5072046;28;20212;-93
2021/05/19 02:08:08;;;;;;;4.47;3.50;;;8.20;99.90;;;;;;5057823;28;20197;-93
2021/05/19 02:10:35;;;;;;;4.63;3.07;;;8.30;99.90;;;;;;5072335;28;20706;-93
2021/05/19 02:13:03;;;;;;;8.03;4.13;;;8.30;99.90;;;;;;5059841;28;20215;-93
2021/05/19 02:15:29;;;;;;;4.17;3.80;;;8.30;99.90;;;;;;5077287;28;20292;-92
2021/05/19 02:17:55;;;;;;;4.60;4.20;;;8.40;99.90;;;;;;5074757;28;20315;-93
2021/05/19 02:20:23;;;;;;;4.13;3.30;;;8.40;99.90;;;;;;5024221;28;20193;-93
2021/05/19 02:22:49;;;;;;;6.60;4.77;;;8.40;99.90;;;;;;5072635;28;20248;-93
2021/05/19 02:25:18;;;;;;;5.50;3.90;;;8.40;99.90;;;;;;5073345;28;20594;-93
2021/05/19 02:27:45;;;;;;;7.87;4.27;;;8.50;99.90;;;;;;5077949;28;20200;-92
2021/05/19 02:30:12;;;;;;;5.43;4.17;;;8.50;99.90;;;;;;5066439;28;20223;-93
2021/05/19 02:32:39;;;;;;;13.60;4.90;;;8.50;99.90;;;;;;5053376;28;20189;-94
2021/05/19 02:35:06;;;;;;;4.97;4.30;;;8.50;99.90;;;;;;5051482;28;20217;-93
2021/05/19 02:37:32;;;;;;;7.13;5.70;;;8.40;99.90;;;;;;5068334;28;20895;-94
2021/05/19 02:39:58;;;;;;;6.83;4.50;;;8.40;99.90;;;;;;5051029;28;20218;-93
2021/05/19 02:42:24;;;;;;;5.87;4.30;;;8.50;99.90;;;;;;5030487;28;20217;-93
2021/05/19 02:44:50;;;;;;;9.33;5.43;;;8.50;99.90;;;;;;5068469;28;20244;-93
2021/05/19 02:47:16;;;;;;;8.97;5.63;;;8.60;99.90;;;;;;5052134;28;20201;-93
2021/05/19 02:49:41;;;;;;;8.30;5.40;;;8.60;99.90;;;;;;5065990;28;20631;-92
2021/05/19 02:52:07;;;;;;;9.53;6.20;;;8.60;99.90;;;;;;5032842;28;20362;-93
2021/05/19 02:54:34;;;;;;;11.73;6.60;;;8.70;99.90;;;;;;5067241;28;20221;-93
2021/05/19 02:57:00;;;;;;;10.60;5.97;;;8.70;99.90;;;;;;5065517;28;20603;-93
2021/05/19 02:59:25;;;;;;;9.53;7.20;;;8.70;99.90;;;;;;5050449;28;20772;-93
2021/05/19 03:01:52;;;;;;;10.27;6.47;;;8.80;99.90;;;;;;5050834;28;20266;-92
2021/05/19 03:04:18;;;;;;;9.37;6.80;;;8.90;99.90;;;;;;5049530;28;20231;-93
2021/05/19 03:06:44;;;;;;;11.33;7.20;;;8.90;99.90;;;;;;5048605;28;20221;-93
2021/05/19 03:09:10;;;;;;;10.33;7.00;;;8.90;99.90;;;;;;5065104;28;20232;-93
2021/05/19 03:11:36;;;;;;;10.27;7.27;;;8.90;99.90;;;;;;5047147;28;20195;-93
2021/05/19 03:14:03;;;;;;;8.97;8.13;;;8.80;99.90;;;;;;5041694;28;20196;-94
2021/05/19 03:16:30;;;;;;;10.20;5.93;;;8.80;99.90;;;;;;5033817;28;20224;-93
2021/05/19 03:18:56;;;;;;;10.80;7.33;;;8.80;99.90;;;;;;5052374;28;20719;-93
2021/05/19 03:21:22;;;;;;;10.00;6.33;;;8.80;99.90;;;;;;5070893;28;20221;-93
2021/05/19 03:23:48;;;;;;;13.57;7.77;;;8.80;99.90;;;;;;5071172;28;20335;-93
2021/05/19 03:26:14;;;;;;;12.17;7.90;;;8.80;99.90;;;;;;5054518;28;20184;-94
2021/05/19 03:28:41;;;;;;;13.20;8.27;;;8.80;99.90;;;;;;5036322;28;20720;-93
2021/05/19 03:31:08;;;;;;;10.30;7.77;;;8.80;99.90;;;;;;5053425;28;20240;-93
2021/05/19 03:33:35;;;;;;;8.93;6.63;;;8.70;99.90;;;;;;5049691;28;20300;-93
2021/05/19 03:36:01;;;;;;;10.17;7.83;;;8.70;99.90;;;;;;5059180;28;20270;-93
2021/05/19 03:38:27;;;;;;;15.57;8.93;;;8.70;99.90;;;;;;5059964;28;20726;-93
2021/05/19 03:40:53;;;;;;;11.13;8.67;;;8.60;99.90;;;;;;5058214;28;20255;-94
2021/05/19 03:43:19;;;;;;;10.20;8.13;;;8.70;99.90;;;;;;5040958;28;20222;-93
2021/05/19 03:45:44;;;;;;;10.10;8.47;;;8.60;99.90;;;;;;5057699;28;20681;-93
2021/05/19 03:48:10;;;;;;;16.23;7.30;;;8.70;99.90;;;;;;5057324;28;20669;-94
2021/05/19 03:50:37;;;;;;;10.63;7.23;;;8.60;99.90;;;;;;5041723;28;20177;-93
2021/05/19 03:53:04;;;;;;;9.57;7.97;;;8.60;99.90;;;;;;5059647;28;20188;-94
2021/05/19 03:55:30;;;;;;;11.97;9.00;;;8.60;99.90;;;;;;5041525;28;20212;-93
2021/05/19 03:57:56;;;;;;;8.30;7.23;;;8.60;99.90;;;;;;5056501;28;21303;-93
2021/05/19 04:00:25;;;;;;;10.67;7.67;;;8.60;99.90;;;;;;5039352;28;20270;-92
2021/05/19 04:02:51;;;;;;;8.57;7.23;;;8.60;99.90;;;;;;5073891;28;20274;-94
2021/05/19 04:05:22;;;;;;;8.73;7.07;;;8.50;99.90;;;;;;5056916;28;20213;-92
2021/05/19 04:07:49;;;;;;;12.27;7.83;;;8.50;99.90;;;;;;5077049;28;20228;-93
2021/05/19 04:10:15;;;;;;;9.93;7.97;;;8.60;99.90;;;;;;5056355;28;20219;-93
2021/05/19 04:12:41;;;;;;;12.63;9.10;;;8.70;99.90;;;;;;5075621;28;20224;-93
2021/05/19 04:15:07;;;;;;;10.83;8.27;;;8.70;99.90;;;;;;5023939;28;20233;-92
2021/05/19 04:17:33;;;;;;;11.80;9.13;;;8.70;99.90;;;;;;5057309;28;20209;-93
2021/05/19 04:19:59;;;;;;;14.10;8.07;;;8.70;99.90;;;;;;5041439;28;20185;-92
2021/05/19 04:22:25;;;;;;;10.97;7.53;;;8.70;99.90;;;;;;5073566;28;20905;-93
2021/05/19 04:24:51;;;;;;;10.70;8.60;;;8.70;99.90;;;;;;5056025;28;20237;-94
2021/05/19 04:27:16;;;;;;;12.53;8.37;;;8.60;99.90;;;;;;5056121;28;20225;-93
2021/05/19 04:29:42;;;;;;;9.80;8.83;;;8.70;99.90;;;;;;5048513;28;20729;-93
2021/05/19 04:32:10;;;;;;;10.97;8.50;;;8.70;99.90;;;;;;5074971;28;20230;-93
2021/05/19 04:34:37;;;;;;;13.13;9.60;;;8.80;99.90;;;;;;5041402;28;20225;-93
2021/05/19 04:37:03;;;;;;;14.43;10.33;;;8.80;99.90;;;;;;5057624;28;20588;-92
2021/05/19 04:39:29;;;;;;;14.80;9.33;;;9.00;99.90;;;;;;5041502;28;20221;-94
2021/05/19 04:41:55;;;;;;;16.77;9.83;;;9.10;99.90;;;;;;5068941;28;20231;-94
2021/05/19 04:44:21;;;;;;;13.93;10.97;;;9.30;99.90;;;;;;5038577;28;20209;-92
2021/05/19 04:46:47;;;;;;;17.93;9.07;;;9.50;99.90;;;;;;5051254;28;20224;-93
2021/05/19 04:49:13;;;;;;;13.27;9.70;;;9.60;99.90;;;;;;5056711;28;20213;-93
2021/05/19 04:51:38;;;;;;;13.73;10.83;;;9.70;99.90;;;;;;5042631;28;20276;-93
2021/05/19 04:54:04;;;;;;;19.43;11.90;;;9.80;99.90;;;;;;5070827;28;20321;-93
2021/05/19 04:56:30;;;;;;;16.33;10.27;;;10.00;99.90;;;;;;5063453;28;20192;-93
2021/05/19 04:58:56;;;;;;;16.50;12.20;;;10.10;99.90;;;;;;5061550;28;20177;-93
2021/05/19 05:01:24;;;;;;;16.13;11.47;;;10.30;99.90;;;;;;5040696;28;20212;-94
2021/05/19 05:03:49;;;;;;;19.80;12.23;;;10.50;99.90;;;;;;5046363;28;20228;-93
2021/05/19 05:06:15;;;;;;;18.50;14.67;;;10.70;99.90;;;;;;5024644;28;20217;-94
2021/05/19 05:08:41;;;;;;;15.57;11.70;;;10.90;99.90;;;;;;5068903;28;20250;-94
2021/05/19 05:11:08;;;;;;;19.23;11.33;;;11.10;99.90;;;;;;5060061;28;20200;-95
2021/05/19 05:13:33;;;;;;;16.50;12.37;;;11.30;99.90;;;;;;5057705;28;21125;-95
2021/05/19 05:16:02;;;;;;;23.00;13.83;;;11.70;99.90;;;;;;5039814;28;20229;-94
2021/05/19 05:18:37;;;;;;;20.20;11.80;;;13.40;99.90;;;;;;5057649;28;20213;-95
2021/05/19 05:21:06;;;;;;;15.33;11.80;;;14.40;99.90;;;;;;5074571;28;20216;-94
2021/05/19 05:23:32;;;;;;;16.33;11.60;;;16.30;99.90;;;;;;5071253;28;20182;-94
2021/05/19 05:25:59;;;;;;;12.27;10.33;;;19.00;99.90;;;;;;5040582;28;20714;-95
2021/05/19 05:28:25;;;;;;;12.80;9.20;;;21.60;99.90;;;;;;5053351;28;20221;-95
2021/05/19 05:30:51;;;;;;;15.97;10.53;;;23.10;99.90;;;;;;5053259;28;20240;-95
2021/05/19 05:33:17;;;;;;;12.73;8.77;;;24.40;99.90;;;;;;5056593;28;20220;-94
2021/05/19 05:35:43;;;;;;;12.27;9.43;;;25.50;99.90;;;;;;5033175;28;20186;-94
2021/05/19 05:38:09;;;;;;;16.87;9.27;;;25.60;99.90;;;;;;5047017;28;20197;-94
2021/05/19 05:40:35;;;;;;;14.13;9.97;;;24.20;99.90;;;;;;5074256;28;20224;-94
2021/05/19 05:43:01;;;;;;;13.90;9.03;;;25.10;99.90;;;;;;5041170;28;20220;-93
2021/05/19 05:45:27;;;;;;;12.83;9.60;;;25.40;99.90;;;;;;5054256;28;20263;-93
2021/05/19 05:47:54;;;;;;;13.47;10.77;;;26.70;99.90;;;;;;5020674;28;20221;-93
2021/05/19 05:50:20;;;;;;;11.60;9.27;;;27.50;99.90;;;;;;5056512;28;20184;-95
2021/05/19 05:52:46;;;;;;;16.93;10.43;;;28.00;99.90;;;;;;5054743;28;20235;-95
2021/05/19 05:55:12;;;;;;;17.10;10.40;;;27.20;99.90;;;;;;5054698;28;20658;-94
2021/05/19 05:57:38;;;;;;;18.23;10.90;;;26.10;99.90;;;;;;5022800;28;20261;-95
2021/05/19 06:00:09;;;;;;;18.00;10.07;;;26.10;99.90;;;;;;5035990;28;20275;-94
2021/05/19 06:02:35;;;;;;;12.77;10.07;;;26.10;99.90;;;;;;5032789;28;20228;-94
2021/05/19 06:05:01;;;;;;;18.47;10.40;;;25.90;99.90;;;;;;5054151;28;20221;-95
2021/05/19 06:07:34;;;;;;;16.03;10.13;;;25.90;99.90;;;;;;5034050;28;20234;-91
2021/05/19 06:10:00;;;;;;;14.43;10.20;;;24.80;99.90;;;;;;5053309;28;20373;-93
2021/05/19 06:12:26;;;;;;;14.67;9.47;;;25.00;99.90;;;;;;5068838;28;20232;-93
2021/05/19 06:14:52;;;;;;;13.87;10.40;;;25.40;99.90;;;;;;5068934;28;20221;-94
2021/05/19 06:17:20;;;;;;;15.73;10.40;;;25.70;99.90;;;;;;5051725;28;20200;-94
2021/05/19 06:19:46;;;;;;;16.67;10.93;;;25.40;99.90;;;;;;5067015;28;20213;-94
2021/05/19 06:22:11;;;;;;;15.00;10.77;;;25.00;99.90;;;;;;5053676;28;20213;-94
2021/05/19 06:24:37;;;;;;;11.93;9.87;;;25.50;99.90;;;;;;5053622;28;20217;-94
2021/05/19 06:27:04;;;;;;;15.40;10.75;;;25.90;99.90;;;;;;5040125;28;20239;-94
2021/05/19 06:29:32;;;;;;;19.10;10.63;;;25.30;99.90;;;;;;5069968;28;20262;-92
2021/05/19 06:31:58;;;;;;;13.98;9.40;;;26.20;99.90;;;;;;5063985;28;20265;-93
2021/05/19 06:34:24;;;;;;;14.05;10.00;;;25.90;99.90;;;;;;5070430;28;20223;-94
2021/05/19 06:36:51;;;;;;;17.60;9.77;;;25.30;99.90;;;;;;5068973;28;20221;-94
2021/05/19 06:39:22;;;;;;;10.38;8.70;;;25.40;99.90;;;;;;5048517;28;20217;-92
2021/05/19 06:41:49;;;;;;;13.82;9.80;;;25.10;99.90;;;;;;5034307;28;20252;-92
2021/05/19 06:44:17;;;;;;;13.90;9.67;;;24.20;99.90;;;;;;5051193;28;20251;-92
2021/05/19 06:46:44;;;;;;;12.37;10.30;;;24.70;99.90;;;;;;5065880;28;20244;-93
2021/05/19 06:49:10;;;;;;;11.75;9.82;;;25.20;99.90;;;;;;5051605;28;20221;-93
2021/05/19 06:51:36;;;;;;;11.10;8.63;;;26.90;99.90;;;;;;5052451;28;20224;-92
2021/05/19 06:54:02;;;;;;;13.93;8.35;;;27.20;99.00;;;;;;5034667;28;20218;-92
2021/05/19 06:56:28;;;;;;;11.07;8.80;;;27.00;98.80;;;;;;5054053;28;20200;-94
2021/05/19 06:58:54;;;;;;;11.90;8.48;;;26.50;99.90;;;;;;5067812;28;20221;-95
2021/05/19 07:01:21;;;;;;;9.50;8.23;;;27.00;99.90;;;;;;5052517;28;20229;-96
2021/05/19 07:03:50;;;;;;;11.32;7.88;;;27.20;99.90;;;;;;5050056;28;20229;-95
2021/05/19 07:06:20;;;;;;;9.43;8.38;;;28.10;99.70;;;;;;5066022;28;20214;-95
2021/05/19 07:08:46;;;;;;;10.40;7.75;;;28.50;98.50;;;;;;5038066;28;20178;-96
2021/05/19 07:11:12;;;;;;;10.93;7.97;;;26.70;99.50;;;;;;5062208;28;20192;-96
2021/05/19 07:13:41;;;;;;;6.07;5.45;;;26.30;99.90;;;;;;5071431;28;20268;-95
2021/05/19 07:16:08;;;;;;;10.70;6.00;;;26.50;98.80;;;;;;5050987;28;20231;-95
2021/05/19 07:18:36;;;;;;;8.93;6.50;;;26.30;99.90;;;;;;5068246;28;20213;-93
2021/05/19 07:21:01;;;;;;;6.43;5.72;;;24.20;99.80;;;;;;5054648;28;20247;-96
2021/05/19 07:23:27;;;;;;;7.18;6.25;;;22.30;99.90;;;;;;5065085;28;20191;-91
2021/05/19 07:25:53;;;;;;;6.88;5.15;;;20.20;99.90;;;;;;5059510;28;20225;-91
2021/05/19 07:28:19;;;;;;;5.97;4.75;;;20.40;99.90;;;;;;5037574;28;20228;-95
2021/05/19 07:30:47;;;;;;;8.50;5.50;;;19.90;99.90;;;;;;5066979;28;20686;-95
2021/05/19 07:33:13;;;;;;;7.20;5.20;;;21.60;99.90;;;;;;5051470;28;20253;-95
2021/05/19 07:35:39;;;;;;;8.68;5.50;;;24.40;99.90;;;;;;5055283;28;20228;-96
2021/05/19 07:38:06;;;;;;;8.57;6.28;;;26.30;99.90;;;;;;5053643;28;20182;-95
2021/05/19 07:40:32;;;;;;;10.45;5.28;;;27.00;99.80;;;;;;5048600;28;20308;-91
2021/05/19 07:42:58;;;;;;;6.57;5.63;;;27.60;98.00;;;;;;5051541;28;20332;-94
2021/05/19 07:45:24;;;;;;;11.02;6.18;;;27.80;97.90;;;;;;5032704;28;20226;-95
2021/05/19 07:47:50;;;;;;;9.38;6.82;;;28.40;97.90;;;;;;5052126;28;20282;-93
2021/05/19 07:50:16;;;;;;;7.30;6.18;;;27.90;97.50;;;;;;5035441;28;21212;-93
2021/05/19 07:52:41;;;;;;;9.50;5.97;;;26.80;98.90;;;;;;5068945;28;21484;-92
2021/05/19 07:55:12;;;;;;;7.70;6.22;;;27.60;98.50;;;;;;5035507;28;20308;-95
2021/05/19 07:57:47;;;;;;;9.07;6.63;;;26.80;98.60;;;;;;5051618;28;20284;-95
2021/05/19 08:01:06;;;;;;;8.13;6.30;;;28.20;97.10;;;;;;5026649;28;20217;-96
2021/05/19 08:03:03;;;;;;;9.50;6.40;;;26.40;98.00;;;;;;5046759;28;20267;-90
2021/05/19 08:05:29;;;;;;;9.00;5.60;;;27.30;98.20;;;;;;5048958;28;20237;-87
2021/05/19 08:07:56;;;;;;;6.47;5.88;;;27.80;97.40;;;;;;5048652;28;20291;-89
2021/05/19 08:10:22;;;;;;;58.15;13.25;;;27.10;96.60;;;;;;5029836;28;20716;-94
2021/05/19 08:12:51;;;;;;;13.10;7.93;;;27.00;97.60;;;;;;5015022;28;20233;-96
2021/05/19 08:15:20;;;;;;;7.57;6.15;;;26.50;98.20;;;;;;5051249;28;20588;-96
2021/05/19 08:17:46;;;;;;;10.45;6.53;;;26.90;98.50;;;;;;5049006;28;20242;-93
2021/05/19 08:20:12;;;;;;;7.22;5.72;;;27.10;99.10;;;;;;5058071;28;20197;-94
2021/05/19 08:22:41;;;;;;;14.07;7.22;;;27.70;98.60;;;;;;5036722;28;20703;-94
2021/05/19 08:25:07;;;;;;;11.38;6.22;;;26.80;97.10;;;;;;5035399;28;20233;-94
2021/05/19 08:27:33;;;;;;;10.63;6.43;;;25.80;97.90;;;;;;5051277;28;20225;-89
2021/05/19 08:29:59;;;;;;;7.43;5.45;;;23.40;99.80;;;;;;5051977;28;20230;-88
2021/05/19 08:32:24;;;;;;;4.43;3.95;;;21.50;99.90;;;;;;5019747;28;20193;-88
2021/05/19 08:34:50;;;;;;;7.13;5.43;;;20.10;99.90;;;;;;5039317;28;20563;-89
2021/05/19 08:37:16;;;;;;;5.25;4.18;;;19.40;99.90;;;;;;5038026;28;20263;-90
2021/05/19 08:39:42;;;;;;;10.87;5.73;;;18.70;99.90;;;;;;5036206;28;20226;-90
2021/05/19 08:42:07;;;;;;;5.43;3.80;;;18.50;99.90;;;;;;5053200;28;20224;-87
2021/05/19 08:44:33;;;;;;;13.47;5.43;;;18.10;99.90;;;;;;5021569;28;20225;-89
2021/05/19 08:46:59;;;;;;;5.30;4.20;;;18.70;99.90;;;;;;5038534;28;20266;-89
2021/05/19 08:49:26;;;;;;;6.20;4.60;;;21.40;99.90;;;;;;5052458;28;20682;-90
2021/05/19 08:51:54;;;;;;;3.80;2.90;;;24.30;99.90;;;;;;5055267;28;20224;-89
2021/05/19 08:54:21;;;;;;;4.70;2.70;;;25.00;99.90;;;;;;5069608;28;20267;-88
2021/05/19 08:56:50;;;;;;;4.10;2.63;;;24.50;98.30;;;;;;5050997;28;20189;-89
2021/05/19 08:59:16;;;;;;;3.83;2.85;;;23.70;99.30;;;;;;5053675;28;20272;-89
2021/05/19 09:01:43;;;;;;;2.55;2.33;;;22.20;99.90;;;;;;5031751;28;20221;-89
2021/05/19 09:04:19;;;;;;;4.37;2.43;;;20.80;99.90;;;;;;5050042;28;20632;-88
2021/05/19 09:07:01;;;;;;;2.47;2.17;;;19.30;99.90;;;;;;5055118;28;20245;-89
2021/05/19 09:09:35;;;;;;;2.90;1.93;;;18.70;99.90;;;;;;5052743;28;20224;-88
2021/05/19 09:12:12;;;;;;;3.97;2.30;;;19.20;99.90;;;;;;5020852;28;20230;-90
2021/05/19 09:14:54;;;;;;;5.90;2.93;;;20.90;99.90;;;;;;5052902;28;20194;-89
2021/05/19 09:17:33;;;;;;;2.10;1.90;;;23.10;99.90;;;;;;5070702;28;20182;-89
2021/05/19 09:20:02;;;;;;;3.00;2.20;;;23.40;99.90;;;;;;5069268;28;20228;-88
2021/05/19 09:22:32;;;;;;;3.93;2.63;;;23.70;99.60;;;;;;5052075;28;20225;-89
2021/05/19 09:24:59;;;;;;;4.03;2.60;;;22.30;99.90;;;;;;5068305;28;20389;-88
2021/05/19 09:27:39;;;;;;;2.85;1.88;;;23.50;99.90;;;;;;5054264;28;20205;-88
2021/05/19 09:30:06;;;;;;;2.42;1.77;;;25.30;98.70;;;;;;5051556;28;20225;-89
2021/05/19 09:32:37;;;;;;;2.28;1.90;;;25.50;99.30;;;;;;5068804;28;20198;-89
2021/05/19 09:35:03;;;;;;;3.17;1.90;;;25.40;99.00;;;;;;5037761;28;20189;-89
2021/05/19 09:37:30;;;;;;;3.03;2.70;;;26.10;99.90;;;;;;5043864;28;20304;-88
2021/05/19 09:39:58;;;;;;;4.03;3.38;;;26.90;99.90;;;;;;5053282;28;20225;-88
2021/05/19 09:42:37;;;;;;;2.17;1.98;;;24.70;99.90;;;;;;5051115;28;20224;-89
2021/05/19 09:45:19;;;;;;;4.25;3.08;;;22.90;99.90;;;;;;5068205;28;20225;-90
2021/05/19 09:47:45;;;;;;;3.50;3.20;;;20.50;99.90;;;;;;5048859;28;20190;-89
2021/05/19 09:50:15;;;;;;;2.30;2.10;;;19.10;99.90;;;;;;5035678;28;20285;-90
2021/05/19 09:53:02;;;;;;;2.93;2.73;;;18.30;99.90;;;;;;5052162;28;20226;-89
2021/05/19 09:55:29;;;;;;;2.20;1.93;;;17.90;99.90;;;;;;5050730;28;20225;-89
2021/05/19 09:57:55;;;;;;;2.60;2.37;;;17.50;99.90;;;;;;5062678;28;20213;-87
2021/05/19 10:00:24;;;;;;;2.13;1.93;;;17.00;99.90;;;;;;5029551;28;20308;-89
2021/05/19 10:02:51;;;;;;;2.57;2.30;;;16.70;99.90;;;;;;5063420;28;20232;-87
2021/05/19 10:05:26;;;;;;;2.10;1.60;;;17.30;99.90;;;;;;5048495;28;20229;-89
2021/05/19 10:07:55;;;;;;;3.17;2.83;;;16.70;99.90;;;;;;5029393;28;20245;-89
2021/05/19 10:10:25;;;;;;;3.00;2.60;;;18.00;99.90;;;;;;5045435;28;20284;-89
2021/05/19 10:12:52;;;;;;;3.23;2.23;;;18.90;99.90;;;;;;5042968;28;20245;-89
2021/05/19 10:15:24;;;;;;;2.00;1.47;;;18.90;99.90;;;;;;5011986;28;20245;-89
2021/05/19 10:18:02;;;;;;;3.23;2.40;;;17.50;99.90;;;;;;5045251;28;20222;-89
2021/05/19 10:20:31;;;;;;;3.57;1.80;;;17.40;99.90;;;;;;5052308;28;20192;-90
2021/05/19 10:22:58;;;;;;;1.33;1.23;;;18.10;99.90;;;;;;5047876;28;20319;-90
2021/05/19 10:25:38;;;;;;;0.93;0.93;;;18.60;99.90;;;;;;5032647;28;20236;-90
2021/05/19 10:28:10;;;;;;;1.50;1.40;;;18.40;99.90;;;;;;5049046;28;20229;-89
2021/05/19 10:30:42;;;;;;;1.87;1.77;;;18.90;99.90;;;;;;5050700;28;20234;-89
2021/05/19 10:33:37;;;;;;;1.80;1.70;;;18.80;99.90;;;;;;5052549;28;20222;-89
2021/05/19 10:36:25;;;;;;;1.47;1.37;;;18.50;99.90;;;;;;5039884;28;20220;-89
2021/05/19 10:41:45;;;;;;;1.03;1.03;;;17.70;99.90;;;;;;5069387;28;20288;-89
2021/05/19 10:44:28;;;;;;;2.70;1.57;;;17.60;99.90;;;;;;5054890;28;20225;-88
2021/05/19 10:47:07;;;;;;;2.87;2.07;;;18.50;99.90;;;;;;5068313;28;20221;-89
2021/05/19 10:57:12;;;;;;;2.27;1.80;;;18.10;99.90;;;;;;5069844;28;20569;-87
2021/05/19 11:01:10;;;;;;;1.73;1.50;;;18.90;99.90;;;;;;5050545;28;20208;-87
2021/05/19 11:03:41;;;;;;;1.97;1.60;;;19.10;99.90;;;;;;5018541;28;20223;-87
2021/05/19 11:06:10;;;;;;;1.50;1.40;;;19.90;99.90;;;;;;5051119;28;20234;-87
2021/05/19 11:08:36;;;;;;;4.73;1.67;;;19.10;99.90;;;;;;5066165;28;20621;-86
2021/05/19 11:11:15;;;;;;;2.10;1.53;;;18.90;99.90;;;;;;5053596;28;20192;-87
2021/05/19 11:13:58;;;;;;;3.57;2.27;;;18.80;99.90;;;;;;5064938;28;20852;-86
2021/05/19 11:16:28;;;;;;;3.33;2.47;;;19.30;99.90;;;;;;5069166;28;20213;-86
2021/05/19 11:21:28;;;;;;;3.20;1.77;;;19.00;99.90;;;;;;5051184;28;20216;-85
2021/05/19 11:24:24;;;;;;;2.03;1.60;;;18.80;99.90;;;;;;5047439;28;20284;-86
2021/05/19 11:26:50;;;;;;;2.43;2.13;;;18.70;99.90;;;;;;5068145;28;20221;-87
2021/05/19 11:29:16;;;;;;;3.67;2.07;;;18.70;99.90;;;;;;5036589;28;20235;-87
2021/05/19 11:31:47;;;;;;;3.13;2.70;;;18.20;99.90;;;;;;5067582;28;20240;-86
2021/05/19 11:34:20;;;;;;;2.87;1.70;;;18.60;99.90;;;;;;5069505;28;20213;-87
2021/05/19 11:36:54;;;;;;;2.70;2.30;;;18.10;99.90;;;;;;5059765;28;20216;-87
2021/05/19 11:39:31;;;;;;;3.43;2.33;;;18.20;99.90;;;;;;5043219;28;20211;-87
2021/05/19 11:42:26;;;;;;;5.07;2.90;;;18.50;99.90;;;;;;5066965;28;20693;-87
2021/05/19 11:44:55;;;;;;;2.80;2.60;;;18.20;99.90;;;;;;5069228;28;20231;-86
2021/05/19 11:47:41;;;;;;;4.73;2.67;;;17.50;99.90;;;;;;5051609;28;20191;-87
2021/05/19 11:50:22;;;;;;;4.07;2.57;;;17.60;99.90;;;;;;5051267;28;20313;-87
2021/05/19 11:52:56;;;;;;;5.43;2.70;;;17.50;99.90;;;;;;5066755;28;20634;-88
2021/05/19 11:55:25;;;;;;;2.73;2.30;;;17.40;99.90;;;;;;5066548;28;20225;-86
2021/05/19 11:58:02;;;;;;;3.70;3.27;;;17.40;99.90;;;;;;5052229;28;20225;-86
2021/05/19 12:00:39;;;;;;;3.67;2.03;;;17.10;99.90;;;;;;5054292;28;20216;-85
2021/05/19 12:03:07;;;;;;;3.90;3.47;;;17.10;99.90;;;;;;5070666;28;20224;-85
2021/05/19 12:05:43;;;;;;;5.60;3.83;;;16.80;99.90;;;;;;5054111;28;20211;-86
2021/05/19 12:08:09;;;;;;;2.20;2.00;;;16.40;99.90;;;;;;5071370;28;20185;-86
2021/05/19 12:10:35;;;;;;;3.37;3.07;;;16.30;99.90;;;;;;5071000;28;21206;-84
2021/05/19 12:13:03;;;;;;;3.07;2.80;;;16.80;99.90;;;;;;5037525;28;20256;-86
2021/05/19 12:15:33;;;;;;;4.93;3.87;;;17.00;99.90;;;;;;5069800;28;20258;-86
2021/05/19 12:18:01;;;;;;;3.17;2.87;;;17.10;99.90;;;;;;5055054;28;20778;-86
2021/05/19 12:20:28;;;;;;;4.57;3.63;;;17.00;99.90;;;;;;5041036;28;20184;-86
2021/05/19 12:22:55;;;;;;;3.30;2.93;;;17.30;99.90;;;;;;5052829;28;20309;-86
2021/05/19 12:25:21;;;;;;;2.57;2.37;;;17.20;99.90;;;;;;5054194;28;20586;-87
2021/05/19 12:27:51;;;;;;;2.97;2.47;;;17.20;99.90;;;;;;5035679;28;20225;-86
2021/05/19 12:30:18;;;;;;;3.13;2.87;;;17.00;99.90;;;;;;5051436;28;20325;-87
2021/05/19 12:33:03;;;;;;;3.30;3.00;;;17.50;99.90;;;;;;5036710;28;20237;-86
2021/05/19 12:35:31;;;;;;;4.43;3.60;;;17.30;99.90;;;;;;5028642;28;20680;-86
2021/05/19 12:38:00;;;;;;;7.47;2.80;;;17.50;99.90;;;;;;5014747;28;20190;-86
2021/05/19 12:40:29;;;;;;;3.13;2.67;;;17.50;99.90;;;;;;5028723;28;20214;-86
2021/05/19 12:43:00;;;;;;;2.27;1.90;;;17.20;99.90;;;;;;5027950;28;20249;-86
2021/05/19 12:45:30;;;;;;;6.60;3.40;;;17.40;99.90;;;;;;5029245;28;20237;-87
2021/05/19 12:48:05;;;;;;;5.07;3.60;;;17.70;99.90;;;;;;5030124;28;20222;-86
2021/05/19 12:50:39;;;;;;;5.80;3.40;;;17.60;99.90;;;;;;5027482;28;20379;-85
2021/05/19 12:53:06;;;;;;;3.57;2.10;;;18.00;99.90;;;;;;5029910;28;20557;-85
2021/05/19 12:55:32;;;;;;;4.80;3.67;;;17.20;99.90;;;;;;5029955;28;20505;-85
2021/05/19 12:58:11;;;;;;;4.10;2.87;;;17.00;99.90;;;;;;5027379;28;20214;-85
2021/05/19 13:00:56;;;;;;;2.27;1.83;;;17.00;99.90;;;;;;5010323;28;20295;-86
2021/05/19 13:03:31;;;;;;;5.00;2.80;;;17.40;99.90;;;;;;5015500;28;20225;-86
2021/05/19 13:06:05;;;;;;;3.93;2.90;;;17.60;99.90;;;;;;5028651;28;20237;-87
2021/05/19 13:08:31;;;;;;;3.23;2.73;;;17.00;99.90;;;;;;5028402;28;20343;-87
2021/05/19 13:10:57;;;;;;;3.70;3.27;;;16.70;99.90;;;;;;4978906;28;20195;-87